Brier Hill, NY (13614)

6:27 AM EDT on July 28, 2014 (GMT -0400)
St. Lawrence River shoreline (IONTARIO750) Elev 285 ft | 44.54 °N, 75.76 °W | Change Station

Current weather conditions updated 22 seconds ago

Light Rain
Light Rain
61.3 °F
Feels Like 61.3 °F
N
2.9
Wind Variable Wind from NNW
Gusts 8.0 mph

Today is forecast to be Much Cooler than yesterday. Rain.

Today
High -- | Low -- °F
--% Chance of Precip.
Yesterday
High -- | Low -- °F
Precip. -- in
5:44 AM 8:32 PM
New Moon, 2% visible
Pressure 29.59 in
Visibility 7.0 miles
Clouds Overcast 200 ft
Dew Point 60 °F
Humidity 97%
Rainfall 0.00 in
Snow Depth Not available.
UV 0.0 out of 12
Pollen 1.10 out of 12
Air Quality Not available.
Flu Activity Not available.
METAR KGTB 280958Z AUTO 03007KT 7SM -RA OVC002 17/17 A2959 RMK AO2 RAB0930DZB0912E0930 SLP018 P0001 T01690169

More Conditions Fewer Conditions

Pressure 29.59 in
Visibility 7.0 miles
Clouds Overcast 200 ft
Dew Point 60 °F
Humidity 97%
Rainfall 0.00 in
Snow Depth Not available.
UV 0.0 out of 12
Pollen 1.10 out of 12
Air Quality Not available.
Flu Activity Not available.
METAR KGTB 280958Z AUTO 03007KT 7SM -RA OVC002 17/17 A2959 RMK AO2 RAB0930DZB0912E0930 SLP018 P0001 T01690169

More Conditions Fewer Conditions

10-Day Weather Forecast

Almanac

Astronomy

Jul. 28, 2014 Rise Set
Actual Time 5:44 AM EDT 8:32 PM EDT
Civil Twilight 5:11 AM EDT 9:06 PM EDT
Nautical Twilight 4:28 AM EDT 9:49 PM EDT
Astronomical Twilight 3:37 AM EDT 10:39 PM EDT
Moon 7:30 AM EDT 9:05 PM EDT
Length of Visible Light 15h 55m
Length of Day
14h 47m
Tomorrow will be 2m 14s shorter.
New Moon, 2% of the Moon is Illuminated
Today
New Moon
Aug 3
First Quarter
Aug 10
Full
Aug 17
Last Quarter
Aug 25
New

Today's Extremes

State Highs State Lows

Community

WunderPhotos

Upload Photos

1,738,292 photos uploaded!

Nearby

Air Quality

  Air Quality AQ Index Pollutant
Monday Good
OZONE
Monday Good
PM2.5

Snow Depth

Station Depth Elevation
No new snow has been reported.

Earthquake Activity

City Distance Mag. Time & Date
No recent earthquake activity has been reported nearby.
Minimum magnitude displayed is 2.5.

Coastal Water Temperatures

Place Temperature
Alexandria Bay, NY 69.1 °F
Ogdensburg, NY 64.0 °F

Nearby Weather Stations

Station Location Temp. Dew Point Humidity Wind Precip. Elev Updated Type
St. Lawrence River shoreline, Brockville 61.3 °F 60 °F 97% NNW  at  2.9 mph 0.00 in / hr 285 ft 6:27 AM EDT Rapid Fire
Big Bay Black Lake NY, Hammond, NY 62.5 °F 61 °F 95% ENE  at  7.0 mph 0.00 in / hr 283 ft 5:14 AM EDT Normal
Gouverneur, NY 62.3 °F 62 °F 98% NNW  at  7.0 mph - / hr 432 ft 6:24 AM EDT Normal
Village of Gouverneur (Barnes St.), Gouverneur, NY 62.4 °F 59 °F 88% WSW  at  0.0 mph - / hr 433 ft 6:13 AM EDT Normal

Show More Stations Show Fewer Stations